Time;durP1;ratioP1;P1;durP2;ratioP2;P2;SDS_P1;SDS_P2;PMS_P1;PMS_P2;Temp;Humidity;BMP_temperature;BMP_pressure;BME280_temperature;BME280_humidity;BME280_pressure;Samples;Min_cycle;Max_cycle;Signal;HPM_P1;HPM_P2
2022/02/14 00:00:31;;;;;;;;;;;;;;;-2.13;64.40;98791.38;218491;1277;22546;-68
2022/02/14 00:05:43;;;;;;;;;;;;;;;-2.00;64.38;98786.17;218546;1277;24103;-67
2022/02/14 00:11:26;;;;;;;;;;;;;;;-1.88;64.35;98788.56;218291;1277;26448;-68
2022/02/14 00:16:55;;;;;;;;;;;;;;;-1.84;64.10;98794.65;218535;1279;23105;-67
2022/02/14 00:22:17;;;;;;;;;;;;;;;-1.84;64.15;98787.39;218096;1281;22657;-67
2022/02/14 00:27:47;;;;;;;;;;;;;;;-1.86;64.09;98781.98;218385;1277;24384;-68
2022/02/14 00:33:15;;;;;;;;;;;;;;;-1.87;64.23;98783.36;218288;1277;25232;-67
2022/02/14 00:38:39;;;;;;;;;;;;;;;-1.92;64.23;98784.34;218448;1277;22942;-66
2022/02/14 00:44:18;;;;;;;;;;;;;;;-1.97;64.17;98781.24;218439;1277;24827;-68
2022/02/14 00:49:30;;;;;;;;;;;;;;;-2.04;64.09;98774.44;218426;1279;22553;-68
2022/02/14 00:55:13;;;;;;;;;;;;;;;-2.12;64.09;98768.11;218362;1279;22561;-67
2022/02/14 01:00:43;;;;;;;;;;;;;;;-2.18;64.14;98760.10;218519;1277;24284;-67
2022/02/14 01:06:25;;;;;;;;;;;;;;;;;;;;;
2022/02/14 01:11:39;;;;;;;;;;;;;;;-2.31;64.04;98739.58;218449;1277;25304;-67
2022/02/14 01:17:25;;;;;;;;;;;;;;;-2.37;64.15;98723.59;218565;1279;22546;-67
2022/02/14 01:22:38;;;;;;;;;;;;;;;-2.41;64.25;98716.66;218339;1279;22654;-67
2022/02/14 01:28:08;;;;;;;;;;;;;;;-2.44;64.47;98715.86;218459;1277;22656;-68
2022/02/14 01:33:28;;;;;;;;;;;;;;;-2.45;64.71;98714.20;218602;1279;22529;-68
2022/02/14 01:39:09;;;;;;;;;;;;;;;-2.47;64.85;98706.64;218399;1279;22697;-68
2022/02/14 01:44:31;;;;;;;;;;;;;;;-2.48;64.73;98699.45;218161;1279;25589;-68
2022/02/14 01:49:49;;;;;;;;;;;;;;;-2.48;64.89;98692.34;218570;1279;22543;-67
2022/02/14 01:55:14;;;;;;;;;;;;;;;-2.48;65.25;98692.35;218480;1279;22929;-67
2022/02/14 02:00:48;;;;;;;;;;;;;;;-2.48;65.34;98688.11;218469;1278;26380;-68
2022/02/14 02:06:21;;;;;;;;;;;;;;;-2.49;65.27;98680.64;218492;1277;22532;-68
2022/02/14 02:18:10;;;;;;;;;;;;;;;-2.47;65.82;98670.19;218490;1277;24758;-67
2022/02/14 02:23:38;;;;;;;;;;;;;;;-2.45;66.03;98668.33;218462;1278;25395;-69
2022/02/14 02:28:51;;;;;;;;;;;;;;;-2.44;66.37;98661.98;218547;1277;24800;-68
2022/02/14 02:34:05;;;;;;;;;;;;;;;-2.42;66.56;98661.41;218352;1279;22786;-68
2022/02/14 02:45:09;;;;;;;;;;;;;;;-2.38;67.15;98656.30;218269;1277;25295;-68
2022/02/14 02:50:30;;;;;;;;;;;;;;;-2.36;67.26;98651.88;218725;1277;22497;-68
2022/02/14 02:55:43;;;;;;;;;;;;;;;-2.34;67.72;98651.66;218386;1277;22728;-67
2022/02/14 03:01:37;;;;;;;;;;;;;;;-2.33;68.04;98646.57;218418;1277;22585;-68
2022/02/14 03:07:37;;;;;;;;;;;;;;;;;;;;;
2022/02/14 03:13:40;;;;;;;;;;;;;;;-2.25;68.67;98647.91;218350;1279;22533;-68
2022/02/14 03:19:12;;;;;;;;;;;;;;;-2.21;68.84;98649.88;218260;1280;22551;-67
2022/02/14 03:24:20;;;;;;;;;;;;;;;-2.18;68.85;98642.52;218497;1279;25381;-68
2022/02/14 03:29:48;;;;;;;;;;;;;;;-2.18;69.16;98644.33;218480;1277;24629;-68
2022/02/14 03:35:00;;;;;;;;;;;;;;;-2.16;69.51;98643.92;218688;1277;24140;-68
2022/02/14 03:40:19;;;;;;;;;;;;;;;-2.16;69.39;98638.63;218491;1277;24034;-68
2022/02/14 03:45:28;;;;;;;;;;;;;;;-2.16;69.67;98637.10;218593;1277;22525;-67
2022/02/14 03:50:45;;;;;;;;;;;;;;;-2.17;69.67;98633.03;218585;1277;25444;-68
2022/02/14 03:56:29;;;;;;;;;;;;;;;;;;;;;
2022/02/14 04:02:24;;;;;;;;;;;;;;;-2.11;70.50;98631.23;218393;1277;24716;-69
2022/02/14 04:07:33;;;;;;;;;;;;;;;-2.09;70.44;98628.07;218674;1277;22527;-68
2022/02/14 04:13:06;;;;;;;;;;;;;;;-2.05;70.75;98620.05;218414;1277;22540;-68
2022/02/14 04:18:24;;;;;;;;;;;;;;;-2.02;70.86;98617.73;218310;1279;22584;-68
2022/02/14 04:23:46;;;;;;;;;;;;;;;-1.99;70.97;98612.26;218517;1278;24132;-67
2022/02/14 04:30:07;;;;;;;;;;;;;;;-1.95;71.12;98610.38;218605;1278;25365;-66
2022/02/14 04:35:30;;;;;;;;;;;;;;;;;;;;;
2022/02/14 04:41:14;;;;;;;;;;;;;;;;;;;;;
2022/02/14 04:47:06;;;;;;;;;;;;;;;-1.89;71.30;98605.45;218545;1277;25336;-68
2022/02/14 04:52:25;;;;;;;;;;;;;;;-1.90;71.31;98603.77;218729;1277;25388;-68
2022/02/14 05:03:39;;;;;;;;;;;;;;;-1.95;71.49;98598.54;218644;1277;25537;-67
2022/02/14 05:08:49;;;;;;;;;;;;;;;-1.96;71.55;98599.24;218483;1278;22564;-68
2022/02/14 05:14:21;;;;;;;;;;;;;;;-2.00;71.59;98597.08;218529;1278;22559;-68
2022/02/14 05:20:01;;;;;;;;;;;;;;;-2.02;71.64;98597.13;218382;1277;25314;-67
2022/02/14 05:25:38;;;;;;;;;;;;;;;;;;;;;
2022/02/14 05:31:32;;;;;;;;;;;;;;;-2.04;71.70;98598.39;218323;1281;22620;-68
2022/02/14 05:36:49;;;;;;;;;;;;;;;-2.05;71.95;98592.91;218495;1278;25338;-68
2022/02/14 05:42:21;;;;;;;;;;;;;;;-2.07;71.87;98593.52;218501;1277;24217;-67
2022/02/14 05:47:42;;;;;;;;;;;;;;;-2.08;72.09;98593.21;218591;1278;22529;-68
2022/02/14 05:53:03;;;;;;;;;;;;;;;-2.07;72.32;98595.50;218645;1278;22590;-68
2022/02/14 05:58:17;;;;;;;;;;;;;;;-2.05;72.43;98597.98;218497;1277;22879;-67
2022/02/14 06:03:19;;;;;;;;;;;;;;;-2.02;72.67;98598.50;218660;1278;23094;-68
2022/02/14 06:08:22;;;;;;;;;;;;;;;-2.02;72.67;98599.63;218843;1277;22565;-69
2022/02/14 06:13:36;;;;;;;;;;;;;;;-2.02;72.86;98600.59;218521;1279;22545;-68
2022/02/14 06:18:38;;;;;;;;;;;;;;;-2.04;72.88;98605.86;218679;1278;22765;-68
2022/02/14 06:23:49;;;;;;;;;;;;;;;-2.03;72.86;98601.05;218690;1279;22994;-68
2022/02/14 06:28:54;;;;;;;;;;;;;;;-2.00;73.09;98600.63;218694;1278;22754;-68
2022/02/14 06:34:19;;;;;;;;;;;;;;;;;;;;;
2022/02/14 06:40:10;;;;;;;;;;;;;;;-1.87;73.39;98594.98;218541;1278;22536;-68
2022/02/14 06:45:35;;;;;;;;;;;;;;;-1.74;73.82;98595.67;218547;1279;24863;-67
2022/02/14 06:51:19;;;;;;;;;;;;;;;-1.58;73.62;98593.73;217814;1281;22560;-67
2022/02/14 06:56:26;;;;;;;;;;;;;;;-1.39;73.96;98591.69;218044;1277;22562;-68
2022/02/14 07:01:38;;;;;;;;;;;;;;;-1.03;74.20;98594.61;217822;1276;22771;-67
2022/02/14 07:07:18;;;;;;;;;;;;;;;;;;;;;
2022/02/14 07:12:46;;;;;;;;;;;;;;;-0.37;74.11;98594.19;218045;1276;24731;-67
2022/02/14 07:18:01;;;;;;;;;;;;;;;-0.03;73.65;98595.21;217936;1276;26142;-68
2022/02/14 07:23:05;;;;;;;;;;;;;;;0.26;73.53;98592.04;217956;1277;25676;-68
2022/02/14 07:28:32;;;;;;;;;;;;;;;;;;;;;
2022/02/14 07:33:47;;;;;;;;;;;;;;;1.19;72.76;98590.45;218708;1276;25455;-68
2022/02/14 07:38:58;;;;;;;;;;;;;;;1.35;72.37;98591.73;218159;1278;22861;-67
2022/02/14 07:44:26;;;;;;;;;;;;;;;1.47;72.02;98586.79;218274;1276;22538;-67
2022/02/14 07:49:33;;;;;;;;;;;;;;;1.55;71.84;98583.14;218190;1276;22573;-68
2022/02/14 07:54:38;;;;;;;;;;;;;;;1.64;71.54;98587.07;218024;1277;22569;-68
2022/02/14 08:00:12;;;;;;;;;;;;;;;1.79;71.42;98574.63;218204;1276;24234;-67
2022/02/14 08:05:37;;;;;;;;;;;;;;;1.93;71.31;98577.73;217912;1276;22698;-67
2022/02/14 08:10:51;;;;;;;;;;;;;;;2.08;71.05;98571.14;218051;1279;22698;-67
2022/02/14 08:16:12;;;;;;;;;;;;;;;2.26;70.78;98568.95;218061;1277;22838;-68
2022/02/14 08:21:53;;;;;;;;;;;;;;;2.52;70.46;98568.59;217687;1277;22636;-68
2022/02/14 08:27:13;;;;;;;;;;;;;;;2.78;69.70;98565.97;217766;1276;22716;-68
2022/02/14 08:32:30;;;;;;;;;;;;;;;3.01;69.40;98564.00;218104;1277;22688;-67
2022/02/14 08:38:01;;;;;;;;;;;;;;;3.25;68.98;98566.23;217938;1276;22569;-67
2022/02/14 08:43:04;;;;;;;;;;;;;;;3.44;68.45;98564.71;217730;1279;22553;-67
2022/02/14 08:48:30;;;;;;;;;;;;;;;3.65;68.01;98567.19;218311;1278;26534;-68
2022/02/14 08:53:35;;;;;;;;;;;;;;;3.79;67.22;98568.61;218451;1278;25410;-68
2022/02/14 08:58:50;;;;;;;;;;;;;;;3.96;66.86;98571.64;217837;1276;24098;-68
2022/02/14 09:03:56;;;;;;;;;;;;;;;4.12;66.66;98567.52;218267;1277;22541;-68
2022/02/14 09:09:00;;;;;;;;;;;;;;;4.32;66.42;98569.98;217948;1277;22555;-68
2022/02/14 09:14:10;;;;;;;;;;;;;;;4.52;66.57;98566.47;217889;1276;22527;-68
2022/02/14 09:19:25;;;;;;;;;;;;;;;4.75;65.91;98563.79;217992;1277;22621;-68
2022/02/14 09:24:52;;;;;;;;;;;;;;;4.93;64.65;98561.30;217918;1276;24238;-69
2022/02/14 09:29:54;;;;;;;;;;;;;;;5.01;64.04;98554.80;217869;1277;26451;-68
2022/02/14 09:35:31;;;;;;;;;;;;;;;5.11;64.00;98552.64;218058;1277;22546;-68
2022/02/14 09:40:39;;;;;;;;;;;;;;;5.25;63.50;98551.70;218373;1279;26506;-68
2022/02/14 09:45:47;;;;;;;;;;;;;;;5.37;63.15;98548.66;218250;1276;25376;-68
2022/02/14 09:51:10;;;;;;;;;;;;;;;5.49;62.78;98542.60;218033;1276;22534;-68
2022/02/14 09:56:46;;;;;;;;;;;;;;;;;;;;;
2022/02/14 10:02:02;;;;;;;;;;;;;;;5.73;61.00;98538.59;217989;1276;25573;-68
2022/02/14 10:08:07;;;;;;;;;;;;;;;5.85;60.19;98538.08;217915;1276;23957;-68
2022/02/14 10:13:35;;;;;;;;;;;;;;;5.96;59.56;98532.06;218048;1276;22531;-68
2022/02/14 10:18:46;;;;;;;;;;;;;;;6.07;58.85;98534.86;218100;1277;22754;-68
2022/02/14 10:23:59;;;;;;;;;;;;;;;6.21;58.81;98526.18;218429;1278;22620;-69
2022/02/14 10:29:15;;;;;;;;;;;;;;;6.37;58.54;98520.34;218067;1277;22554;-68
2022/02/14 10:34:33;;;;;;;;;;;;;;;;;;;;;
2022/02/14 10:39:35;;;;;;;;;;;;;;;6.48;55.59;98510.97;218093;1277;22535;-68
2022/02/14 10:50:32;;;;;;;;;;;;;;;6.62;56.79;98505.47;218093;1278;22653;-68
2022/02/14 10:55:42;;;;;;;;;;;;;;;6.75;56.40;98500.02;217941;1276;25377;-68
2022/02/14 11:00:44;;;;;;;;;;;;;;;6.77;55.55;98494.90;218379;1279;22551;-68
2022/02/14 11:05:47;;;;;;;;;;;;;;;6.84;55.85;98486.48;218006;1278;22556;-68
2022/02/14 11:10:52;;;;;;;;;;;;;;;6.96;56.22;98483.02;217662;1279;839481;-67
2022/02/14 11:15:57;;;;;;;;;;;;;;;7.09;55.47;98476.27;218534;1278;22758;-67
2022/02/14 11:21:02;;;;;;;;;;;;;;;7.23;55.56;98466.84;217735;1279;24334;-68
2022/02/14 11:26:20;;;;;;;;;;;;;;;7.42;54.89;98460.93;217915;1277;22696;-69
2022/02/14 11:31:36;;;;;;;;;;;;;;;7.55;54.11;98456.70;218138;1279;22595;-68
2022/02/14 11:36:58;;;;;;;;;;;;;;;7.67;53.77;98452.05;218404;1278;22541;-70
2022/02/14 11:42:00;;;;;;;;;;;;;;;7.86;54.27;98450.36;218285;1278;22540;-69
2022/02/14 11:47:21;;;;;;;;;;;;;;;7.94;52.08;98441.51;218190;1277;22541;-68
2022/02/14 11:52:34;;;;;;;;;;;;;;;7.97;51.86;98434.75;218153;1277;25221;-68
2022/02/14 11:58:13;;;;;;;;;;;;;;;8.04;52.20;98429.20;218411;1278;23413;-68
2022/02/14 12:03:34;;;;;;;;;;;;;;;8.15;51.61;98417.73;218047;1278;24278;-67
2022/02/14 12:09:00;;;;;;;;;;;;;;;8.22;51.37;98417.48;218193;1277;23838;-68
2022/02/14 12:14:17;;;;;;;;;;;;;;;8.30;51.65;98406.29;218060;1277;22581;-68
2022/02/14 12:24:49;;;;;;;;;;;;;;;8.39;50.33;98382.92;217908;1280;22558;-68
2022/02/14 12:29:51;;;;;;;;;;;;;;;8.50;51.02;98375.58;218129;1277;22499;-67
2022/02/14 12:35:12;;;;;;;;;;;;;;;8.59;50.15;98373.13;218329;1278;22585;-68
2022/02/14 12:40:38;;;;;;;;;;;;;;;8.64;50.21;98366.44;218175;1278;22535;-69
2022/02/14 12:46:04;;;;;;;;;;;;;;;8.69;49.70;98359.55;217982;1278;24327;-68
2022/02/14 12:51:12;;;;;;;;;;;;;;;8.68;48.72;98358.86;217853;1278;24407;-68
2022/02/14 12:56:28;;;;;;;;;;;;;;;8.72;48.92;98353.44;218161;1277;25294;-68
2022/02/14 13:02:21;;;;;;;;;;;;;;;8.80;49.14;98341.96;219869;1277;24282;-68
2022/02/14 13:07:45;;;;;;;;;;;;;;;8.87;49.09;98337.97;218198;1277;22559;-68
2022/02/14 13:13:04;;;;;;;;;;;;;;;8.87;48.64;98330.11;218279;1277;23186;-68
2022/02/14 13:18:21;;;;;;;;;;;;;;;8.81;48.29;98321.16;218370;1277;24445;-68
2022/02/14 13:23:26;;;;;;;;;;;;;;;8.78;48.85;98312.98;218125;1278;22536;-68
2022/02/14 13:28:31;;;;;;;;;;;;;;;8.77;48.41;98298.67;218239;1279;22558;-67
2022/02/14 13:33:50;;;;;;;;;;;;;;;8.75;48.47;98297.48;218127;1278;24316;-68
2022/02/14 13:38:54;;;;;;;;;;;;;;;8.69;47.94;98293.27;218564;1277;22534;-69
2022/02/14 13:44:27;;;;;;;;;;;;;;;8.66;48.34;98290.21;218346;1278;22547;-68
2022/02/14 13:49:46;;;;;;;;;;;;;;;8.62;48.31;98288.83;218140;1281;22557;-68
2022/02/14 13:55:35;;;;;;;;;;;;;;;;;;;;;
2022/02/14 14:00:51;;;;;;;;;;;;;;;8.46;48.32;98288.48;218130;1281;22688;-66
2022/02/14 14:06:29;;;;;;;;;;;;;;;8.39;48.49;98282.57;218233;1280;26892;-68
2022/02/14 14:11:42;;;;;;;;;;;;;;;8.34;48.44;98278.63;218178;1280;24328;-68
2022/02/14 14:17:24;;;;;;;;;;;;;;;;;;;;;
2022/02/14 14:22:41;;;;;;;;;;;;;;;8.18;48.54;98276.95;218156;1281;23457;-67
2022/02/14 14:27:51;;;;;;;;;;;;;;;8.11;48.62;98275.11;218103;1278;22551;-68
2022/02/14 14:32:58;;;;;;;;;;;;;;;8.02;48.84;98269.43;218255;1277;22553;-69
2022/02/14 14:38:06;;;;;;;;;;;;;;;7.94;48.71;98264.56;218444;1278;22614;-69
2022/02/14 14:43:08;;;;;;;;;;;;;;;7.83;48.91;98261.11;218056;1278;22627;-68
2022/02/14 14:48:14;;;;;;;;;;;;;;;7.72;49.03;98259.23;218173;1281;22547;-68
2022/02/14 14:53:17;;;;;;;;;;;;;;;7.59;49.03;98255.15;218068;1277;23062;-67
2022/02/14 14:58:22;;;;;;;;;;;;;;;7.46;48.76;98256.02;218232;1277;22569;-69
2022/02/14 15:03:42;;;;;;;;;;;;;;;7.37;48.27;98250.77;218174;1277;24464;-68
2022/02/14 15:09:03;;;;;;;;;;;;;;;7.22;47.54;98255.36;218515;1278;22655;-68
2022/02/14 15:14:23;;;;;;;;;;;;;;;7.07;48.32;98251.80;218693;1277;22687;-68
2022/02/14 15:19:27;;;;;;;;;;;;;;;6.91;48.67;98250.95;218532;1277;22596;-68
2022/02/14 15:24:57;;;;;;;;;;;;;;;6.73;48.70;98246.48;218578;1278;24276;-68
2022/02/14 15:30:36;;;;;;;;;;;;;;;6.52;49.04;98245.75;218600;1277;25369;-67
2022/02/14 15:35:52;;;;;;;;;;;;;;;6.34;49.26;98242.81;218749;1277;22560;-67
2022/02/14 15:40:54;;;;;;;;;;;;;;;6.16;49.72;98238.04;219188;1277;25423;-69
2022/02/14 15:46:01;;;;;;;;;;;;;;;5.97;50.03;98232.52;218543;1277;22573;-68
2022/02/14 15:51:07;;;;;;;;;;;;;;;5.76;50.31;98232.92;218613;1277;22534;-67
2022/02/14 15:56:10;;;;;;;;;;;;;;;5.56;50.54;98234.45;218623;1277;22534;-67
2022/02/14 16:01:13;;;;;;;;;;;;;;;5.35;50.86;98233.95;218752;1277;22529;-68
2022/02/14 16:06:27;;;;;;;;;;;;;;;5.17;51.17;98236.52;218781;1277;22563;-68
2022/02/14 16:11:32;;;;;;;;;;;;;;;4.99;51.46;98235.82;218931;1277;22557;-68
2022/02/14 16:16:37;;;;;;;;;;;;;;;4.80;51.83;98236.48;218635;1277;22553;-68
2022/02/14 16:21:46;;;;;;;;;;;;;;;4.62;52.10;98240.39;218735;1278;25432;-68
2022/02/14 16:26:56;;;;;;;;;;;;;;;4.43;52.51;98239.05;218712;1277;24222;-68
2022/02/14 16:31:59;;;;;;;;;;;;;;;4.27;52.94;98241.28;218973;1277;24252;-67
2022/02/14 16:37:01;;;;;;;;;;;;;;;4.13;53.20;98244.05;218662;1277;25503;-67
2022/02/14 16:42:08;;;;;;;;;;;;;;;3.99;53.46;98244.35;218902;1277;22703;-67
2022/02/14 16:47:26;;;;;;;;;;;;;;;3.84;53.85;98242.73;218852;1277;22528;-68
2022/02/14 16:52:39;;;;;;;;;;;;;;;3.70;54.16;98239.91;218948;1278;22543;-64
2022/02/14 16:58:02;;;;;;;;;;;;;;;3.57;54.52;98247.17;218868;1277;24422;-68
2022/02/14 17:03:09;;;;;;;;;;;;;;;3.49;55.02;98254.02;218906;1277;22919;-68
2022/02/14 17:08:36;;;;;;;;;;;;;;;3.52;55.39;98254.94;218829;1278;22553;-68
2022/02/14 17:13:50;;;;;;;;;;;;;;;;;;;;;
2022/02/14 17:19:37;;;;;;;;;;;;;;;3.38;55.90;98263.75;218770;1279;24251;-67
2022/02/14 17:25:28;;;;;;;;;;;;;;;3.43;56.38;98262.35;218673;1277;25369;-68
2022/02/14 17:30:53;;;;;;;;;;;;;;;3.48;56.77;98264.02;219051;1277;25226;-67
2022/02/14 17:35:58;;;;;;;;;;;;;;;3.46;56.83;98268.46;218759;1277;22566;-67
2022/02/14 17:41:18;;;;;;;;;;;;;;;;;;;;;
2022/02/14 17:46:27;;;;;;;;;;;;;;;3.39;57.31;98271.63;218771;1277;22543;-68
2022/02/14 17:51:47;;;;;;;;;;;;;;;3.30;57.64;98274.11;218674;1277;24321;-68
2022/02/14 17:57:58;;;;;;;;;;;;;;;;;;;;;
2022/02/14 18:03:51;;;;;;;;;;;;;;;2.90;57.95;98279.48;218750;1277;23089;-68
2022/02/14 18:08:56;;;;;;;;;;;;;;;2.68;58.25;98274.14;218863;1277;22701;-68
2022/02/14 18:14:05;;;;;;;;;;;;;;;2.47;58.57;98274.54;218700;1278;22571;-67
2022/02/14 18:19:21;;;;;;;;;;;;;;;2.30;58.98;98273.91;218833;1277;25379;-67
2022/02/14 18:24:24;;;;;;;;;;;;;;;2.15;59.58;98272.20;218835;1279;22611;-67
2022/02/14 18:29:38;;;;;;;;;;;;;;;2.06;60.13;98271.78;218886;1277;23864;-67
2022/02/14 18:34:44;;;;;;;;;;;;;;;1.98;60.15;98268.56;218833;1277;22537;-68
2022/02/14 18:39:54;;;;;;;;;;;;;;;1.87;60.70;98269.38;218872;1277;22548;-66
2022/02/14 18:45:39;;;;;;;;;;;;;;;1.75;60.83;98271.27;218954;1277;22556;-68
2022/02/14 18:50:50;;;;;;;;;;;;;;;1.64;61.09;98270.63;218835;1277;23448;-68
2022/02/14 18:56:02;;;;;;;;;;;;;;;1.56;61.45;98272.11;218697;1277;24237;-68
2022/02/14 19:01:15;;;;;;;;;;;;;;;1.49;61.86;98274.80;218825;1277;24262;-67
2022/02/14 19:06:58;;;;;;;;;;;;;;;1.41;62.12;98273.46;218659;1277;23695;-68
2022/02/14 19:12:14;;;;;;;;;;;;;;;1.35;62.50;98271.14;218635;1277;22561;-67
2022/02/14 19:17:29;;;;;;;;;;;;;;;1.29;62.76;98273.70;218787;1278;22560;-67
2022/02/14 19:22:48;;;;;;;;;;;;;;;1.22;62.85;98271.58;218694;1277;22552;-67
2022/02/14 19:28:07;;;;;;;;;;;;;;;1.15;63.09;98272.20;218460;1279;25163;-69
2022/02/14 19:38:47;;;;;;;;;;;;;;;1.00;63.66;98268.21;218625;1277;25278;-67
2022/02/14 19:43:53;;;;;;;;;;;;;;;0.93;63.95;98267.15;218540;1277;22704;-67
2022/02/14 19:49:01;;;;;;;;;;;;;;;0.87;63.97;98269.80;218689;1277;24243;-69
2022/02/14 19:54:04;;;;;;;;;;;;;;;0.81;64.27;98264.40;218702;1277;24140;-68
2022/02/14 19:59:06;;;;;;;;;;;;;;;0.75;64.64;98267.24;218647;1277;22534;-69
2022/02/14 20:04:11;;;;;;;;;;;;;;;0.67;64.70;98269.86;218760;1277;22541;-69
2022/02/14 20:09:19;;;;;;;;;;;;;;;0.59;64.81;98270.11;218687;1279;22531;-68
2022/02/14 20:14:29;;;;;;;;;;;;;;;0.49;65.23;98266.46;218622;1277;22645;-68
2022/02/14 20:19:39;;;;;;;;;;;;;;;0.41;65.13;98266.11;218539;1277;22682;-69
2022/02/14 20:24:48;;;;;;;;;;;;;;;0.35;65.35;98268.73;218506;1277;22608;-67
2022/02/14 20:29:56;;;;;;;;;;;;;;;0.30;65.68;98272.48;218640;1277;22767;-68
2022/02/14 20:35:02;;;;;;;;;;;;;;;0.26;65.92;98262.12;218747;1277;22525;-67
2022/02/14 20:40:08;;;;;;;;;;;;;;;0.21;66.07;98260.07;218735;1277;22553;-68
2022/02/14 20:45:13;;;;;;;;;;;;;;;0.14;66.24;98257.84;218653;1277;22550;-69
2022/02/14 20:50:21;;;;;;;;;;;;;;;0.08;66.51;98258.61;218687;1277;22577;-68
2022/02/14 20:55:27;;;;;;;;;;;;;;;0.03;66.70;98257.34;218881;1277;23969;-68
2022/02/14 21:00:37;;;;;;;;;;;;;;;-0.03;66.98;98259.71;218663;1277;22524;-68
2022/02/14 21:05:52;;;;;;;;;;;;;;;-0.07;67.01;98252.41;218591;1279;25376;-67
2022/02/14 21:11:25;;;;;;;;;;;;;;;-0.12;67.31;98255.46;218307;1279;22541;-68
2022/02/14 21:16:33;;;;;;;;;;;;;;;-0.16;67.22;98248.69;218437;1277;22547;-68
2022/02/14 21:21:55;;;;;;;;;;;;;;;-0.21;67.23;98244.20;218505;1277;24248;-68
2022/02/14 21:27:00;;;;;;;;;;;;;;;-0.25;67.38;98240.60;218473;1277;22542;-69
2022/02/14 21:32:17;;;;;;;;;;;;;;;-0.27;67.95;98237.23;218697;1278;24117;-68
2022/02/14 21:37:22;;;;;;;;;;;;;;;-0.29;67.95;98232.73;218580;1277;22649;-67
2022/02/14 21:42:24;;;;;;;;;;;;;;;-0.31;68.01;98230.05;218516;1278;25339;-68
2022/02/14 21:47:26;;;;;;;;;;;;;;;-0.34;67.97;98229.98;218679;1277;22754;-68
2022/02/14 21:52:29;;;;;;;;;;;;;;;-0.36;68.25;98227.84;218595;1277;24095;-66
2022/02/14 21:57:31;;;;;;;;;;;;;;;-0.38;68.41;98224.75;218501;1278;22790;-68
2022/02/14 22:02:54;;;;;;;;;;;;;;;-0.40;68.60;98221.19;218571;1277;22565;-68
2022/02/14 22:08:20;;;;;;;;;;;;;;;;;;;;;
2022/02/14 22:13:35;;;;;;;;;;;;;;;-0.48;68.64;98207.11;218716;1277;22550;-68
2022/02/14 22:19:09;;;;;;;;;;;;;;;-0.47;68.77;98207.06;218465;1279;22533;-67
2022/02/14 22:24:40;;;;;;;;;;;;;;;-0.49;69.11;98214.39;218502;1277;26428;-68
2022/02/14 22:29:54;;;;;;;;;;;;;;;-0.53;69.26;98210.58;218714;1277;25375;-68
2022/02/14 22:35:16;;;;;;;;;;;;;;;-0.60;69.18;98207.05;218682;1277;24744;-68
2022/02/14 22:40:27;;;;;;;;;;;;;;;-0.68;69.59;98203.14;218382;1278;25244;-67
2022/02/14 22:45:33;;;;;;;;;;;;;;;-0.73;69.69;98197.46;218373;1277;22573;-68
2022/02/14 22:50:48;;;;;;;;;;;;;;;-0.76;69.83;98193.96;218351;1279;22618;-68
2022/02/14 22:55:54;;;;;;;;;;;;;;;-0.78;70.47;98192.29;218508;1278;22787;-69
2022/02/14 23:01:00;;;;;;;;;;;;;;;-0.81;70.62;98187.75;218768;1277;24253;-67
2022/02/14 23:06:08;;;;;;;;;;;;;;;-0.85;70.84;98183.71;218375;1277;24836;-67
2022/02/14 23:16:35;;;;;;;;;;;;;;;-0.97;71.20;98189.08;218644;1277;22550;-67
2022/02/14 23:21:47;;;;;;;;;;;;;;;;;;;;;
2022/02/14 23:26:50;;;;;;;;;;;;;;;-1.02;71.67;98178.02;218758;1277;22707;-66
2022/02/14 23:31:52;;;;;;;;;;;;;;;-1.02;71.83;98169.77;218557;1277;24324;-67
2022/02/14 23:36:54;;;;;;;;;;;;;;;-1.01;72.04;98165.31;218493;1277;22564;-67
2022/02/14 23:42:10;;;;;;;;;;;;;;;;;;;;;
2022/02/14 23:47:18;;;;;;;;;;;;;;;-0.99;72.22;98160.16;218487;1278;24323;-68
2022/02/14 23:52:30;;;;;;;;;;;;;;;-0.98;72.26;98153.63;218563;1277;24338;-68
2022/02/14 23:57:33;;;;;;;;;;;;;;;-0.97;72.28;98151.38;218611;1277;22897;-68
